sensor_id;sensor_type;location;lat;lon;timestamp;pressure;altitude;pressure_sealevel;temperature;humidity
66880;BME280;53789;51.392;10.234;2023-02-03T00:00:14;98786.41;;;3.86;96.55
66880;BME280;53789;51.392;10.234;2023-02-03T00:00:34;98786.41;;;3.86;96.66
66880;BME280;53789;51.392;10.234;2023-02-03T00:00:55;98784.50;;;3.87;96.45
66880;BME280;53789;51.392;10.234;2023-02-03T00:01:15;98780.97;;;3.86;96.66
66880;BME280;53789;51.392;10.234;2023-02-03T00:01:35;98788.91;;;3.88;96.78
66880;BME280;53789;51.392;10.234;2023-02-03T00:01:56;98788.91;;;3.88;96.93
66880;BME280;53789;51.392;10.234;2023-02-03T00:02:16;98786.41;;;3.86;96.35
66880;BME280;53789;51.392;10.234;2023-02-03T00:02:36;98788.09;;;3.87;96.62
66880;BME280;53789;51.392;10.234;2023-02-03T00:02:57;98788.09;;;3.87;96.50
66880;BME280;53789;51.392;10.234;2023-02-03T00:03:17;98792.44;;;3.88;96.17
66880;BME280;53789;51.392;10.234;2023-02-03T00:03:37;98789.47;;;3.90;96.56
66880;BME280;53789;51.392;10.234;2023-02-03T00:03:58;98791.38;;;3.89;97.00
66880;BME280;53789;51.392;10.234;2023-02-03T00:04:18;98786.72;;;3.90;96.80
66880;BME280;53789;51.392;10.234;2023-02-03T00:04:38;98791.13;;;3.91;96.44
66880;BME280;53789;51.392;10.234;2023-02-03T00:04:59;98783.78;;;3.91;96.81
66880;BME280;53789;51.392;10.234;2023-02-03T00:05:20;98784.00;;;3.90;97.23
66880;BME280;53789;51.392;10.234;2023-02-03T00:05:42;98795.50;;;3.92;96.85
66880;BME280;53789;51.392;10.234;2023-02-03T00:06:03;98791.97;;;3.91;96.90
66880;BME280;53789;51.392;10.234;2023-02-03T00:06:23;98790.06;;;3.92;96.87
66880;BME280;53789;51.392;10.234;2023-02-03T00:06:45;98782.69;;;3.92;96.71
66880;BME280;53789;51.392;10.234;2023-02-03T00:07:05;98793.34;;;3.94;96.27
66880;BME280;53789;51.392;10.234;2023-02-03T00:07:26;98793.34;;;3.94;96.50
66880;BME280;53789;51.392;10.234;2023-02-03T00:07:47;98788.72;;;3.95;96.45
66880;BME280;53789;51.392;10.234;2023-02-03T00:08:09;98787.88;;;3.94;96.53
66880;BME280;53789;51.392;10.234;2023-02-03T00:08:30;98790.63;;;3.94;96.65
66880;BME280;53789;51.392;10.234;2023-02-03T00:08:56;98784.09;;;3.95;96.48
66880;BME280;53789;51.392;10.234;2023-02-03T00:09:18;98772.41;;;3.95;96.12
66880;BME280;53789;51.392;10.234;2023-02-03T00:09:39;98779.47;;;3.96;96.62
66880;BME280;53789;51.392;10.234;2023-02-03T00:09:59;98777.59;;;3.96;96.44
66880;BME280;53789;51.392;10.234;2023-02-03T00:10:20;98774.03;;;3.96;96.28
66880;BME280;53789;51.392;10.234;2023-02-03T00:10:40;98774.03;;;3.96;96.38
66880;BME280;53789;51.392;10.234;2023-02-03T00:11:01;98777.34;;;3.98;96.60
66880;BME280;53789;51.392;10.234;2023-02-03T00:11:22;98778.41;;;3.97;96.50
66880;BME280;53789;51.392;10.234;2023-02-03T00:11:42;98770.25;;;3.97;96.16
66880;BME280;53789;51.392;10.234;2023-02-03T00:12:03;98766.47;;;3.98;96.42
66880;BME280;53789;51.392;10.234;2023-02-03T00:12:23;98771.66;;;3.99;96.37
66880;BME280;53789;51.392;10.234;2023-02-03T00:12:44;98765.38;;;3.99;96.32
66880;BME280;53789;51.392;10.234;2023-02-03T00:13:05;98770.81;;;3.99;96.39
66880;BME280;53789;51.392;10.234;2023-02-03T00:13:26;98774.38;;;3.99;96.78
66880;BME280;53789;51.392;10.234;2023-02-03T00:13:46;98769.19;;;3.98;96.36
66880;BME280;53789;51.392;10.234;2023-02-03T00:14:06;98770.56;;;4.00;96.46
66880;BME280;53789;51.392;10.234;2023-02-03T00:14:27;98768.69;;;4.01;96.41
66880;BME280;53789;51.392;10.234;2023-02-03T00:14:47;98773.28;;;4.00;96.49
66880;BME280;53789;51.392;10.234;2023-02-03T00:15:08;98766.75;;;4.01;96.18
66880;BME280;53789;51.392;10.234;2023-02-03T00:15:28;98771.41;;;4.01;96.62
66880;BME280;53789;51.392;10.234;2023-02-03T00:15:49;98771.66;;;3.99;96.54
66880;BME280;53789;51.392;10.234;2023-02-03T00:16:09;98770.56;;;4.00;96.98
66880;BME280;53789;51.392;10.234;2023-02-03T00:16:30;98768.41;;;4.02;96.57
66880;BME280;53789;51.392;10.234;2023-02-03T00:16:50;98770.91;;;4.04;96.42
66880;BME280;53789;51.392;10.234;2023-02-03T00:17:10;98765.44;;;4.04;96.51
66880;BME280;53789;51.392;10.234;2023-02-03T00:17:31;98766.25;;;4.04;96.62
66880;BME280;53789;51.392;10.234;2023-02-03T00:17:51;98764.38;;;4.05;96.87
66880;BME280;53789;51.392;10.234;2023-02-03T00:18:11;98775.28;;;4.05;96.56
66880;BME280;53789;51.392;10.234;2023-02-03T00:18:32;98770.66;;;4.05;96.56
66880;BME280;53789;51.392;10.234;2023-02-03T00:18:52;98768.72;;;4.06;96.71
66880;BME280;53789;51.392;10.234;2023-02-03T00:19:13;98763.28;;;4.06;96.26
66880;BME280;53789;51.392;10.234;2023-02-03T00:19:33;98772.03;;;4.08;96.49
66880;BME280;53789;51.392;10.234;2023-02-03T00:19:53;98772.03;;;4.08;96.88
66880;BME280;53789;51.392;10.234;2023-02-03T00:20:14;98769.31;;;4.08;96.08
66880;BME280;53789;51.392;10.234;2023-02-03T00:20:34;98775.59;;;4.08;96.64
66880;BME280;53789;51.392;10.234;2023-02-03T00:20:54;98769.06;;;4.09;96.91
66880;BME280;53789;51.392;10.234;2023-02-03T00:21:15;98766.34;;;4.09;96.35
66880;BME280;53789;51.392;10.234;2023-02-03T00:21:35;98769.06;;;4.09;96.59
66880;BME280;53789;51.392;10.234;2023-02-03T00:21:55;98769.06;;;4.09;96.68
66880;BME280;53789;51.392;10.234;2023-02-03T00:22:15;98778.88;;;4.10;96.55
66880;BME280;53789;51.392;10.234;2023-02-03T00:22:36;98774.25;;;4.11;96.60
66880;BME280;53789;51.392;10.234;2023-02-03T00:23:07;98759.00;;;4.10;96.48
66880;BME280;53789;51.392;10.234;2023-02-03T00:23:28;98771.53;;;4.11;96.11
66880;BME280;53789;51.392;10.234;2023-02-03T00:23:48;98772.34;;;4.12;96.25
66880;BME280;53789;51.392;10.234;2023-02-03T00:24:08;98767.72;;;4.12;96.13
66880;BME280;53789;51.392;10.234;2023-02-03T00:24:29;98766.66;;;4.13;96.59
66880;BME280;53789;51.392;10.234;2023-02-03T00:24:49;98764.75;;;4.14;96.44
66880;BME280;53789;51.392;10.234;2023-02-03T00:25:09;98758.25;;;4.15;96.58
66880;BME280;53789;51.392;10.234;2023-02-03T00:25:30;98759.91;;;4.16;96.88
66880;BME280;53789;51.392;10.234;2023-02-03T00:25:51;98756.34;;;4.15;96.26
66880;BME280;53789;51.392;10.234;2023-02-03T00:26:13;98757.16;;;4.16;96.25
66880;BME280;53789;51.392;10.234;2023-02-03T00:26:39;98757.16;;;4.16;96.57
66880;BME280;53789;51.392;10.234;2023-02-03T00:27:00;98759.63;;;4.17;96.63
66880;BME280;53789;51.392;10.234;2023-02-03T00:27:20;98756.09;;;4.17;96.37
66880;BME280;53789;51.392;10.234;2023-02-03T00:27:40;98755.00;;;4.18;95.97
66880;BME280;53789;51.392;10.234;2023-02-03T00:28:01;98761.28;;;4.18;96.46
66880;BME280;53789;51.392;10.234;2023-02-03T00:28:21;98752.28;;;4.18;96.07
66880;BME280;53789;51.392;10.234;2023-02-03T00:28:42;98751.22;;;4.19;96.33
66880;BME280;53789;51.392;10.234;2023-02-03T00:29:02;98749.56;;;4.18;95.80
66880;BME280;53789;51.392;10.234;2023-02-03T00:29:23;98752.03;;;4.19;95.99
66880;BME280;53789;51.392;10.234;2023-02-03T00:29:43;98752.03;;;4.19;96.35
66880;BME280;53789;51.392;10.234;2023-02-03T00:30:04;98755.59;;;4.20;96.12
66880;BME280;53789;51.392;10.234;2023-02-03T00:30:24;98750.16;;;4.20;95.86
66880;BME280;53789;51.392;10.234;2023-02-03T00:30:44;98746.59;;;4.19;96.07
66880;BME280;53789;51.392;10.234;2023-02-03T00:31:05;98744.72;;;4.20;96.28
66880;BME280;53789;51.392;10.234;2023-02-03T00:31:25;98755.59;;;4.20;96.89
66880;BME280;53789;51.392;10.234;2023-02-03T00:31:45;98742.78;;;4.20;96.39
66880;BME280;53789;51.392;10.234;2023-02-03T00:32:06;98740.06;;;4.20;96.24
66880;BME280;53789;51.392;10.234;2023-02-03T00:32:26;98741.97;;;4.20;95.73
66880;BME280;53789;51.392;10.234;2023-02-03T00:32:46;98739.00;;;4.21;95.99
66880;BME280;53789;51.392;10.234;2023-02-03T00:33:07;98735.19;;;4.22;96.01
66880;BME280;53789;51.392;10.234;2023-02-03T00:33:27;98739.56;;;4.23;95.97
66880;BME280;53789;51.392;10.234;2023-02-03T00:33:53;98743.09;;;4.24;95.51
66880;BME280;53789;51.392;10.234;2023-02-03T00:34:14;98737.66;;;4.24;96.05
66880;BME280;53789;51.392;10.234;2023-02-03T00:34:34;98748.00;;;4.22;95.50
66880;BME280;53789;51.392;10.234;2023-02-03T00:34:54;98745.81;;;4.24;95.82
66880;BME280;53789;51.392;10.234;2023-02-03T00:35:15;98749.41;;;4.24;95.70
66880;BME280;53789;51.392;10.234;2023-02-03T00:35:38;98746.91;;;4.23;96.08
66880;BME280;53789;51.392;10.234;2023-02-03T00:36:08;98749.66;;;4.23;95.93
66880;BME280;53789;51.392;10.234;2023-02-03T00:36:28;98755.09;;;4.23;95.79
66880;BME280;53789;51.392;10.234;2023-02-03T00:36:48;98738.16;;;4.21;95.74
66880;BME280;53789;51.392;10.234;2023-02-03T00:37:11;98745.25;;;4.22;95.79
66880;BME280;53789;51.392;10.234;2023-02-03T00:37:31;98745.25;;;4.22;95.85
66880;BME280;53789;51.392;10.234;2023-02-03T00:37:53;98737.91;;;4.22;95.54
66880;BME280;53789;51.392;10.234;2023-02-03T00:38:13;98736.03;;;4.23;95.99
66880;BME280;53789;51.392;10.234;2023-02-03T00:38:34;98733.06;;;4.24;95.99
66880;BME280;53789;51.392;10.234;2023-02-03T00:38:54;98734.94;;;4.24;96.31
66880;BME280;53789;51.392;10.234;2023-02-03T00:39:15;98733.88;;;4.25;96.01
66880;BME280;53789;51.392;10.234;2023-02-03T00:39:35;98729.50;;;4.24;95.86
66880;BME280;53789;51.392;10.234;2023-02-03T00:39:56;98731.41;;;4.23;95.99
66880;BME280;53789;51.392;10.234;2023-02-03T00:40:16;98725.94;;;4.23;95.62
66880;BME280;53789;51.392;10.234;2023-02-03T00:40:37;98721.56;;;4.22;95.77
66880;BME280;53789;51.392;10.234;2023-02-03T00:40:57;98714.00;;;4.24;96.15
66880;BME280;53789;51.392;10.234;2023-02-03T00:41:19;98711.28;;;4.24;95.72
66880;BME280;53789;51.392;10.234;2023-02-03T00:41:40;98712.91;;;4.25;95.72
66880;BME280;53789;51.392;10.234;2023-02-03T00:42:00;98712.66;;;4.27;95.71
66880;BME280;53789;51.392;10.234;2023-02-03T00:42:20;98705.56;;;4.26;95.82
66880;BME280;53789;51.392;10.234;2023-02-03T00:42:41;98704.72;;;4.25;95.78
66880;BME280;53789;51.392;10.234;2023-02-03T00:43:01;98700.94;;;4.26;95.75
66880;BME280;53789;51.392;10.234;2023-02-03T00:43:21;98711.56;;;4.28;95.86
66880;BME280;53789;51.392;10.234;2023-02-03T00:43:42;98711.56;;;4.28;95.65
66880;BME280;53789;51.392;10.234;2023-02-03T00:44:03;98711.81;;;4.26;95.75
66880;BME280;53789;51.392;10.234;2023-02-03T00:44:23;98718.13;;;4.27;95.62
66880;BME280;53789;51.392;10.234;2023-02-03T00:44:43;98724.13;;;4.29;95.63
66880;BME280;53789;51.392;10.234;2023-02-03T00:45:04;98720.31;;;4.30;95.58
66880;BME280;53789;51.392;10.234;2023-02-03T00:45:24;98729.31;;;4.31;96.21
66880;BME280;53789;51.392;10.234;2023-02-03T00:45:44;98731.22;;;4.30;95.29
66880;BME280;53789;51.392;10.234;2023-02-03T00:46:05;98732.03;;;4.31;95.86
66880;BME280;53789;51.392;10.234;2023-02-03T00:46:25;98738.53;;;4.30;95.65
66880;BME280;53789;51.392;10.234;2023-02-03T00:46:45;98729.56;;;4.29;95.37
66880;BME280;53789;51.392;10.234;2023-02-03T00:47:06;98730.97;;;4.32;95.57
66880;BME280;53789;51.392;10.234;2023-02-03T00:47:26;98730.97;;;4.32;95.16
66880;BME280;53789;51.392;10.234;2023-02-03T00:47:46;98738.03;;;4.33;95.16
66880;BME280;53789;51.392;10.234;2023-02-03T00:48:06;98729.88;;;4.33;95.34
66880;BME280;53789;51.392;10.234;2023-02-03T00:48:27;98734.50;;;4.32;95.21
66880;BME280;53789;51.392;10.234;2023-02-03T00:48:47;98731.78;;;4.32;95.58
66880;BME280;53789;51.392;10.234;2023-02-03T00:49:07;98732.34;;;4.34;95.53
66880;BME280;53789;51.392;10.234;2023-02-03T00:49:28;98734.00;;;4.35;95.65
66880;BME280;53789;51.392;10.234;2023-02-03T00:49:48;98734.81;;;4.36;95.30
66880;BME280;53789;51.392;10.234;2023-02-03T00:50:09;98739.19;;;4.37;95.42
66880;BME280;53789;51.392;10.234;2023-02-03T00:50:29;98741.91;;;4.37;95.50
66880;BME280;53789;51.392;10.234;2023-02-03T00:50:49;98740.00;;;4.37;95.51
66880;BME280;53789;51.392;10.234;2023-02-03T00:51:10;98736.47;;;4.37;95.58
66880;BME280;53789;51.392;10.234;2023-02-03T00:51:31;98733.75;;;4.37;95.65
66880;BME280;53789;51.392;10.234;2023-02-03T00:51:52;98726.38;;;4.37;95.37
66880;BME280;53789;51.392;10.234;2023-02-03T00:52:12;98728.03;;;4.38;95.27
66880;BME280;53789;51.392;10.234;2023-02-03T00:52:32;98728.03;;;4.38;95.27
66880;BME280;53789;51.392;10.234;2023-02-03T00:52:52;98726.13;;;4.39;95.47
66880;BME280;53789;51.392;10.234;2023-02-03T00:53:13;98730.75;;;4.38;95.33
66880;BME280;53789;51.392;10.234;2023-02-03T00:53:34;98720.69;;;4.39;95.40
66880;BME280;53789;51.392;10.234;2023-02-03T00:53:54;98723.66;;;4.37;95.24
66880;BME280;53789;51.392;10.234;2023-02-03T00:54:15;98727.22;;;4.38;95.57
66880;BME280;53789;51.392;10.234;2023-02-03T00:54:35;98722.59;;;4.38;95.41
66880;BME280;53789;51.392;10.234;2023-02-03T00:54:56;98723.41;;;4.39;95.48
66880;BME280;53789;51.392;10.234;2023-02-03T00:55:16;98719.06;;;4.38;95.79
66880;BME280;53789;51.392;10.234;2023-02-03T00:55:36;98719.06;;;4.38;95.63
66880;BME280;53789;51.392;10.234;2023-02-03T00:55:57;98717.97;;;4.39;95.29
66880;BME280;53789;51.392;10.234;2023-02-03T00:56:17;98717.16;;;4.38;95.55
66880;BME280;53789;51.392;10.234;2023-02-03T00:56:37;98717.16;;;4.38;95.79
66880;BME280;53789;51.392;10.234;2023-02-03T00:56:58;98702.72;;;4.38;95.46
66880;BME280;53789;51.392;10.234;2023-02-03T00:57:18;98705.44;;;4.38;95.26
66880;BME280;53789;51.392;10.234;2023-02-03T00:57:38;98705.19;;;4.39;95.93
66880;BME280;53789;51.392;10.234;2023-02-03T00:57:59;98696.16;;;4.39;95.84
66880;BME280;53789;51.392;10.234;2023-02-03T00:58:19;98700.00;;;4.38;95.54
66880;BME280;53789;51.392;10.234;2023-02-03T00:58:40;98701.88;;;4.37;95.63
66880;BME280;53789;51.392;10.234;2023-02-03T00:59:00;98706.50;;;4.37;95.77
66880;BME280;53789;51.392;10.234;2023-02-03T00:59:21;98702.97;;;4.36;96.01
66880;BME280;53789;51.392;10.234;2023-02-03T00:59:41;98704.59;;;4.37;95.72
66880;BME280;53789;51.392;10.234;2023-02-03T01:00:03;98700.00;;;4.38;95.65
66880;BME280;53789;51.392;10.234;2023-02-03T01:00:23;98703.53;;;4.38;95.95
66880;BME280;53789;51.392;10.234;2023-02-03T01:00:44;98706.25;;;4.38;95.68
66880;BME280;53789;51.392;10.234;2023-02-03T01:01:04;98703.28;;;4.40;95.67
66880;BME280;53789;51.392;10.234;2023-02-03T01:01:24;98707.06;;;4.39;96.04
66880;BME280;53789;51.392;10.234;2023-02-03T01:01:45;98704.34;;;4.39;95.86
66880;BME280;53789;51.392;10.234;2023-02-03T01:02:05;98704.34;;;4.39;95.63
66880;BME280;53789;51.392;10.234;2023-02-03T01:02:25;98705.44;;;4.38;95.64
66880;BME280;53789;51.392;10.234;2023-02-03T01:02:46;98709.22;;;4.37;96.28
66880;BME280;53789;51.392;10.234;2023-02-03T01:03:07;98708.16;;;4.38;96.07
66880;BME280;53789;51.392;10.234;2023-02-03T01:03:27;98715.22;;;4.39;96.27
66880;BME280;53789;51.392;10.234;2023-02-03T01:03:47;98714.41;;;4.38;96.15
66880;BME280;53789;51.392;10.234;2023-02-03T01:04:08;98713.59;;;4.38;96.45
66880;BME280;53789;51.392;10.234;2023-02-03T01:04:28;98713.59;;;4.38;96.18
66880;BME280;53789;51.392;10.234;2023-02-03T01:04:48;98713.88;;;4.36;96.38
66880;BME280;53789;51.392;10.234;2023-02-03T01:05:09;98718.22;;;4.37;96.28
66880;BME280;53789;51.392;10.234;2023-02-03T01:05:29;98714.69;;;4.37;96.30
66880;BME280;53789;51.392;10.234;2023-02-03T01:05:50;98712.75;;;4.37;96.62
66880;BME280;53789;51.392;10.234;2023-02-03T01:06:18;98719.06;;;4.38;96.27
66880;BME280;53789;51.392;10.234;2023-02-03T01:06:40;98712.75;;;4.37;96.55
66880;BME280;53789;51.392;10.234;2023-02-03T01:07:00;98713.59;;;4.38;96.51
66880;BME280;53789;51.392;10.234;2023-02-03T01:07:20;98710.88;;;4.38;96.47
66880;BME280;53789;51.392;10.234;2023-02-03T01:07:41;98713.59;;;4.38;96.43
66880;BME280;53789;51.392;10.234;2023-02-03T01:08:02;98715.50;;;4.37;96.45
66880;BME280;53789;51.392;10.234;2023-02-03T01:08:22;98711.69;;;4.38;96.43
66880;BME280;53789;51.392;10.234;2023-02-03T01:08:43;98706.25;;;4.38;96.95
66880;BME280;53789;51.392;10.234;2023-02-03T01:09:03;98703.28;;;4.40;96.48
66880;BME280;53789;51.392;10.234;2023-02-03T01:09:25;98708.97;;;4.38;96.57
66880;BME280;53789;51.392;10.234;2023-02-03T01:09:45;98707.06;;;4.39;96.71
66880;BME280;53789;51.392;10.234;2023-02-03T01:10:06;98705.44;;;4.38;96.80
66880;BME280;53789;51.392;10.234;2023-02-03T01:10:27;98708.16;;;4.38;96.66
66880;BME280;53789;51.392;10.234;2023-02-03T01:10:47;98708.16;;;4.38;96.35
66880;BME280;53789;51.392;10.234;2023-02-03T01:11:09;98710.03;;;4.37;96.88
66880;BME280;53789;51.392;10.234;2023-02-03T01:11:31;98710.03;;;4.37;96.97
66880;BME280;53789;51.392;10.234;2023-02-03T01:11:51;98708.41;;;4.36;96.74
66880;BME280;53789;51.392;10.234;2023-02-03T01:12:12;98702.13;;;4.36;96.83
66880;BME280;53789;51.392;10.234;2023-02-03T01:12:32;98713.88;;;4.36;96.63
66880;BME280;53789;51.392;10.234;2023-02-03T01:12:52;98705.94;;;4.35;96.74
66880;BME280;53789;51.392;10.234;2023-02-03T01:13:12;98710.56;;;4.34;96.83
66880;BME280;53789;51.392;10.234;2023-02-03T01:13:33;98702.38;;;4.34;96.19
66880;BME280;53789;51.392;10.234;2023-02-03T01:13:55;98708.66;;;4.35;96.70
66880;BME280;53789;51.392;10.234;2023-02-03T01:14:16;98699.66;;;4.34;96.74
66880;BME280;53789;51.392;10.234;2023-02-03T01:14:36;98702.38;;;4.34;97.03
66880;BME280;53789;51.392;10.234;2023-02-03T01:14:57;98706.19;;;4.33;96.97
66880;BME280;53789;51.392;10.234;2023-02-03T01:15:17;98700.75;;;4.33;96.65
66880;BME280;53789;51.392;10.234;2023-02-03T01:15:45;98708.94;;;4.33;96.67
66880;BME280;53789;51.392;10.234;2023-02-03T01:16:07;98708.94;;;4.33;96.75
66880;BME280;53789;51.392;10.234;2023-02-03T01:16:29;98710.56;;;4.34;96.50
66880;BME280;53789;51.392;10.234;2023-02-03T01:16:50;98701.81;;;4.32;96.60
66880;BME280;53789;51.392;10.234;2023-02-03T01:17:10;98711.66;;;4.33;96.98
66880;BME280;53789;51.392;10.234;2023-02-03T01:17:31;98702.38;;;4.34;97.37
66880;BME280;53789;51.392;10.234;2023-02-03T01:17:51;98699.66;;;4.34;96.87
66880;BME280;53789;51.392;10.234;2023-02-03T01:18:11;98698.84;;;4.34;97.17
66880;BME280;53789;51.392;10.234;2023-02-03T01:18:32;98696.94;;;4.34;97.02
66880;BME280;53789;51.392;10.234;2023-02-03T01:18:54;98699.66;;;4.34;97.16
66880;BME280;53789;51.392;10.234;2023-02-03T01:19:14;98696.13;;;4.34;96.86
66880;BME280;53789;51.392;10.234;2023-02-03T01:19:34;98694.22;;;4.34;97.01
66880;BME280;53789;51.392;10.234;2023-02-03T01:19:55;98695.06;;;4.35;96.69
66880;BME280;53789;51.392;10.234;2023-02-03T01:20:15;98705.94;;;4.35;96.90
66880;BME280;53789;51.392;10.234;2023-02-03T01:20:35;98702.38;;;4.34;96.93
66880;BME280;53789;51.392;10.234;2023-02-03T01:20:55;98699.66;;;4.34;97.01
66880;BME280;53789;51.392;10.234;2023-02-03T01:21:18;98705.09;;;4.34;96.85
66880;BME280;53789;51.392;10.234;2023-02-03T01:21:39;98698.59;;;4.35;96.67
66880;BME280;53789;51.392;10.234;2023-02-03T01:21:59;98696.69;;;4.36;96.83
66880;BME280;53789;51.392;10.234;2023-02-03T01:22:20;98693.16;;;4.35;96.55
66880;BME280;53789;51.392;10.234;2023-02-03T01:22:40;98697.53;;;4.36;96.97
66880;BME280;53789;51.392;10.234;2023-02-03T01:23:00;98688.25;;;4.37;96.71
66880;BME280;53789;51.392;10.234;2023-02-03T01:23:20;98693.69;;;4.37;96.70
66880;BME280;53789;51.392;10.234;2023-02-03T01:23:41;98684.47;;;4.38;97.04
66880;BME280;53789;51.392;10.234;2023-02-03T01:24:02;98683.66;;;4.38;96.99
66880;BME280;53789;51.392;10.234;2023-02-03T01:24:22;98682.56;;;4.39;96.79
66880;BME280;53789;51.392;10.234;2023-02-03T01:24:43;98690.72;;;4.39;96.14
66880;BME280;53789;51.392;10.234;2023-02-03T01:25:03;98682.56;;;4.39;96.89
66880;BME280;53789;51.392;10.234;2023-02-03T01:25:23;98682.31;;;4.40;96.57
66880;BME280;53789;51.392;10.234;2023-02-03T01:25:44;98689.91;;;4.38;96.55
66880;BME280;53789;51.392;10.234;2023-02-03T01:26:07;98691.81;;;4.38;96.18
66880;BME280;53789;51.392;10.234;2023-02-03T01:26:27;98689.09;;;4.38;96.83
66880;BME280;53789;51.392;10.234;2023-02-03T01:26:48;98681.72;;;4.38;96.22
66880;BME280;53789;51.392;10.234;2023-02-03T01:27:09;98682.56;;;4.39;96.22
66880;BME280;53789;51.392;10.234;2023-02-03T01:27:31;98689.09;;;4.38;95.80
66880;BME280;53789;51.392;10.234;2023-02-03T01:27:51;98686.13;;;4.39;96.23
66880;BME280;53789;51.392;10.234;2023-02-03T01:28:12;98686.13;;;4.39;95.89
66880;BME280;53789;51.392;10.234;2023-02-03T01:28:32;98697.00;;;4.39;95.91
66880;BME280;53789;51.392;10.234;2023-02-03T01:28:58;98679.81;;;4.39;96.03
66880;BME280;53789;51.392;10.234;2023-02-03T01:29:19;98686.94;;;4.40;96.20
66880;BME280;53789;51.392;10.234;2023-02-03T01:29:39;98686.13;;;4.39;95.84
66880;BME280;53789;51.392;10.234;2023-02-03T01:29:59;98686.94;;;4.40;95.48
66880;BME280;53789;51.392;10.234;2023-02-03T01:30:20;98688.59;;;4.41;96.01
66880;BME280;53789;51.392;10.234;2023-02-03T01:30:40;98687.78;;;4.40;95.71
66880;BME280;53789;51.392;10.234;2023-02-03T01:31:13;98684.78;;;4.42;95.83
66880;BME280;53789;51.392;10.234;2023-02-03T01:31:36;98686.66;;;4.41;95.76
66880;BME280;53789;51.392;10.234;2023-02-03T01:31:56;98687.50;;;4.42;95.60
66880;BME280;53789;51.392;10.234;2023-02-03T01:32:17;98692.72;;;4.43;95.69
66880;BME280;53789;51.392;10.234;2023-02-03T01:32:37;98690.78;;;4.44;95.55
66880;BME280;53789;51.392;10.234;2023-02-03T01:32:57;98688.31;;;4.42;95.67
66880;BME280;53789;51.392;10.234;2023-02-03T01:33:17;98688.31;;;4.42;95.42
66880;BME280;53789;51.392;10.234;2023-02-03T01:33:38;98684.53;;;4.43;95.83
66880;BME280;53789;51.392;10.234;2023-02-03T01:33:58;98690.78;;;4.44;95.46
66880;BME280;53789;51.392;10.234;2023-02-03T01:34:18;98687.00;;;4.45;95.82
66880;BME280;53789;51.392;10.234;2023-02-03T01:34:39;98691.59;;;4.44;95.27
66880;BME280;53789;51.392;10.234;2023-02-03T01:34:59;98684.53;;;4.43;95.03
66880;BME280;53789;51.392;10.234;2023-02-03T01:35:19;98699.78;;;4.44;95.54
66880;BME280;53789;51.392;10.234;2023-02-03T01:35:40;98695.97;;;4.45;95.35
66880;BME280;53789;51.392;10.234;2023-02-03T01:36:00;98687.25;;;4.43;95.00
66880;BME280;53789;51.392;10.234;2023-02-03T01:36:24;98687.81;;;4.45;95.14
66880;BME280;53789;51.392;10.234;2023-02-03T01:36:44;98688.63;;;4.46;95.32
66880;BME280;53789;51.392;10.234;2023-02-03T01:37:05;98680.44;;;4.46;95.39
66880;BME280;53789;51.392;10.234;2023-02-03T01:37:25;98685.09;;;4.45;94.98
66880;BME280;53789;51.392;10.234;2023-02-03T01:37:45;98686.75;;;4.47;94.89
66880;BME280;53789;51.392;10.234;2023-02-03T01:38:05;98681.28;;;4.47;95.06
66880;BME280;53789;51.392;10.234;2023-02-03T01:38:26;98683.19;;;4.46;94.76
66880;BME280;53789;51.392;10.234;2023-02-03T01:38:46;98682.38;;;4.45;94.80
66880;BME280;53789;51.392;10.234;2023-02-03T01:39:07;98684.03;;;4.47;95.21
66880;BME280;53789;51.392;10.234;2023-02-03T01:39:27;98693.81;;;4.48;94.59
66880;BME280;53789;51.392;10.234;2023-02-03T01:39:48;98685.66;;;4.48;94.51
66880;BME280;53789;51.392;10.234;2023-02-03T01:40:08;98679.38;;;4.47;94.61
66880;BME280;53789;51.392;10.234;2023-02-03T01:40:29;98688.38;;;4.48;94.67
66880;BME280;53789;51.392;10.234;2023-02-03T01:40:49;98691.94;;;4.48;94.92
66880;BME280;53789;51.392;10.234;2023-02-03T01:41:14;98696.78;;;4.46;94.86
66880;BME280;53789;51.392;10.234;2023-02-03T01:41:36;98695.97;;;4.45;95.00
66880;BME280;53789;51.392;10.234;2023-02-03T01:41:57;98693.25;;;4.45;95.46
66880;BME280;53789;51.392;10.234;2023-02-03T01:42:17;98695.16;;;4.45;94.73
66880;BME280;53789;51.392;10.234;2023-02-03T01:42:38;98697.91;;;4.45;94.69
66880;BME280;53789;51.392;10.234;2023-02-03T01:42:58;98692.44;;;4.45;94.92
66880;BME280;53789;51.392;10.234;2023-02-03T01:43:33;98697.06;;;4.44;94.87
66880;BME280;53789;51.392;10.234;2023-02-03T01:43:56;98702.25;;;4.46;94.64
66880;BME280;53789;51.392;10.234;2023-02-03T01:45:02;98696.53;;;4.48;94.77
66880;BME280;53789;51.392;10.234;2023-02-03T01:45:23;98688.38;;;4.48;94.57
66880;BME280;53789;51.392;10.234;2023-02-03T01:45:44;98695.47;;;4.49;94.69
66880;BME280;53789;51.392;10.234;2023-02-03T01:46:38;98690.03;;;4.49;94.53
66880;BME280;53789;51.392;10.234;2023-02-03T01:47:02;98695.47;;;4.49;94.29
66880;BME280;53789;51.392;10.234;2023-02-03T01:47:45;98692.75;;;4.49;94.32
66880;BME280;53789;51.392;10.234;2023-02-03T01:48:08;98694.41;;;4.50;93.90
66880;BME280;53789;51.392;10.234;2023-02-03T01:48:31;98688.13;;;4.49;94.56
66880;BME280;53789;51.392;10.234;2023-02-03T01:48:56;98680.53;;;4.51;94.68
66880;BME280;53789;51.392;10.234;2023-02-03T01:49:27;98695.81;;;4.52;94.06
66880;BME280;53789;51.392;10.234;2023-02-03T01:50:26;98698.28;;;4.54;94.27
66880;BME280;53789;51.392;10.234;2023-02-03T01:50:49;98700.16;;;4.53;94.50
66880;BME280;53789;51.392;10.234;2023-02-03T01:51:10;98693.06;;;4.52;93.81
66880;BME280;53789;51.392;10.234;2023-02-03T01:51:31;98695.81;;;4.52;93.32
66880;BME280;53789;51.392;10.234;2023-02-03T01:51:53;98697.94;;;4.50;93.53
66880;BME280;53789;51.392;10.234;2023-02-03T01:52:14;98692.22;;;4.52;93.64
66880;BME280;53789;51.392;10.234;2023-02-03T01:52:38;98695.81;;;4.52;93.73
66880;BME280;53789;51.392;10.234;2023-02-03T01:53:07;98688.44;;;4.53;94.00
66880;BME280;53789;51.392;10.234;2023-02-03T01:53:31;98687.38;;;4.54;93.27